Chehalis, Washington
Current Conditions -  °F | °C
As of 1:35 PM on Saturday 25 Oct 2014 (Local Time) from KCLS Reporting Station
Broken Clouds Broken Clouds  
Wind Chill: 59°   Ceiling: 5000
Heat Index: 59°   Visibility: 10mi
Dew Point: 54°   Wind: 14mph
Humidity: 82%   Direction: 170°S
Pressure: 29.3"   Gusts: 20mph
Location:  46.66°N, 122.96°W
Report Text: KCLS 252035Z AUTO 17012G17KT 10SM FEW042 BKN050 BKN055 15/12 A2930 RMK AO2
Loading
Personal Weather Stations






























Interactive Weather Map
Tropical Storm Tracking
New forecast layout! Learn more

10-Day Weather Forecast

Advertisements
Track Severe Weather on mobile